Time;durP1;ratioP1;P1;durP2;ratioP2;P2;SDS_P1;SDS_P2;PMS_P1;PMS_P2;Temp;Humidity;BMP_temperature;BMP_pressure;BME280_temperature;BME280_humidity;BME280_pressure;Samples;Min_cycle;Max_cycle;Signal;HPM_P1;HPM_P2
2022/05/18 00:01:59;;;;;;;23.88;13.57;;;;;;;;;;5043723;28;20460;-62
2022/05/18 00:04:26;;;;;;;24.55;13.80;;;;;;;;;;5051885;28;20060;-62
2022/05/18 00:06:53;;;;;;;22.83;13.07;;;;;;;;;;5051654;28;20071;-62
2022/05/18 00:09:20;;;;;;;21.33;13.30;;;;;;;;;;5068890;22;20511;-80
2022/05/18 00:11:48;;;;;;;22.35;12.93;;;;;;;;;;5017684;28;20104;-79
2022/05/18 00:14:15;;;;;;;22.30;13.27;;;;;;;;;;5036206;28;20045;-79
2022/05/18 00:16:41;;;;;;;24.15;14.48;;;;;;;;;;5036340;28;20043;-80
2022/05/18 00:19:08;;;;;;;21.88;13.48;;;;;;;;;;5035127;28;20099;-80
2022/05/18 00:21:35;;;;;;;22.00;12.82;;;;;;;;;;5036572;28;20100;-79
2022/05/18 00:24:03;;;;;;;23.05;12.90;;;;;;;;;;5025343;28;20085;-79
2022/05/18 00:26:30;;;;;;;21.98;12.52;;;;;;;;;;5018129;28;20088;-79
2022/05/18 00:28:58;;;;;;;23.02;13.15;;;;;;;;;;5036734;28;20050;-78
2022/05/18 00:31:25;;;;;;;23.23;12.77;;;;;;;;;;5036451;28;20091;-79
2022/05/18 00:33:52;;;;;;;20.20;11.63;;;;;;;;;;5035262;28;20130;-80
2022/05/18 00:36:19;;;;;;;19.88;12.50;;;;;;;;;;5036689;28;20045;-80
2022/05/18 00:38:45;;;;;;;23.88;12.82;;;;;;;;;;5025990;28;20054;-80
2022/05/18 00:41:13;;;;;;;24.45;12.98;;;;;;;;;;5018036;28;20046;-80
2022/05/18 00:43:42;;;;;;;21.45;13.35;;;;;;;;;;5036512;28;20081;-80
2022/05/18 00:46:13;;;;;;;23.85;12.63;;;;;;;;;;5024623;28;20105;-79
2022/05/18 00:48:41;;;;;;;22.98;12.50;;;;;;;;;;5016641;28;20243;-79
2022/05/18 00:51:11;;;;;;;21.90;12.40;;;;;;;;;;5016485;28;20579;-79
2022/05/18 00:53:42;;;;;;;24.65;12.10;;;;;;;;;;5017302;28;20052;-79
2022/05/18 00:56:14;;;;;;;23.60;12.93;;;;;;;;;;5017475;28;20046;-80
2022/05/18 00:58:45;;;;;;;21.83;12.82;;;;;;;;;;5018322;28;20409;-79
2022/05/18 01:01:13;;;;;;;23.95;13.55;;;;;;;;;;5017819;28;20042;-78
2022/05/18 01:03:42;;;;;;;21.52;12.40;;;;;;;;;;5016445;28;20089;-78
2022/05/18 01:06:14;;;;;;;23.90;12.82;;;;;;;;;;5016782;28;20493;-79
2022/05/18 01:08:47;;;;;;;22.40;12.48;;;;;;;;;;5017822;28;20104;-77
2022/05/18 01:11:14;;;;;;;21.52;12.52;;;;;;;;;;5037046;28;20030;-78
2022/05/18 01:13:41;;;;;;;21.17;12.57;;;;;;;;;;5034761;28;20054;-78
2022/05/18 01:16:08;;;;;;;21.33;11.60;;;;;;;;;;5036151;28;20033;-78
2022/05/18 01:18:36;;;;;;;23.20;13.02;;;;;;;;;;5039884;28;20046;-78
2022/05/18 01:21:03;;;;;;;26.42;13.23;;;;;;;;;;5059397;28;20037;-78
2022/05/18 01:23:45;;;;;;;24.17;12.82;;;;;;;;;;5056068;28;20046;-78
2022/05/18 01:26:22;;;;;;;21.08;12.15;;;;;;;;;;5053348;28;20053;-78
2022/05/18 01:28:53;;;;;;;25.55;13.68;;;;;;;;;;5056891;28;20076;-78
2022/05/18 01:31:37;;;;;;;26.80;12.90;;;;;;;;;;5044623;28;20524;-78
2022/05/18 01:34:04;;;;;;;25.45;14.50;;;;;;;;;;5031174;28;20043;-78
2022/05/18 01:36:31;;;;;;;22.50;13.48;;;;;;;;;;5023809;28;20050;-79
2022/05/18 01:38:58;;;;;;;26.73;14.93;;;;;;;;;;5043020;28;20045;-79
2022/05/18 01:41:27;;;;;;;26.27;14.75;;;;;;;;;;5043177;28;20057;-78
2022/05/18 01:47:17;;;;;;;27.90;15.07;;;;;;;;;;5027929;28;20041;-79
2022/05/18 01:49:48;;;;;;;29.63;18.15;;;;;;;;;;5023682;28;20050;-79
2022/05/18 01:55:53;;;;;;;25.90;14.70;;;;;;;;;;5029037;28;20125;-78
2022/05/18 01:58:20;;;;;;;25.63;14.00;;;;;;;;;;5020501;28;20057;-78
2022/05/18 02:00:48;;;;;;;23.38;15.02;;;;;;;;;;5022165;28;20398;-79
2022/05/18 02:03:17;;;;;;;22.30;13.57;;;;;;;;;;5029746;28;20492;-79
2022/05/18 02:05:44;;;;;;;23.77;13.43;;;;;;;;;;5039144;28;20077;-78
2022/05/18 02:08:12;;;;;;;25.10;13.07;;;;;;;;;;5036923;28;20534;-79
2022/05/18 02:10:40;;;;;;;20.52;12.48;;;;;;;;;;5026631;28;20082;-78
2022/05/18 02:13:07;;;;;;;23.67;12.82;;;;;;;;;;5015995;28;20092;-79
2022/05/18 02:15:34;;;;;;;21.50;12.93;;;;;;;;;;5015905;28;20107;-78
2022/05/18 02:18:04;;;;;;;24.05;14.30;;;;;;;;;;5026016;28;20404;-79
2022/05/18 02:20:33;;;;;;;25.75;12.88;;;;;;;;;;5035685;28;20053;-78
2022/05/18 02:23:00;;;;;;;22.77;13.43;;;;;;;;;;4998196;28;20047;-79
2022/05/18 02:25:26;;;;;;;22.05;12.52;;;;;;;;;;5019365;28;20091;-78
2022/05/18 02:27:54;;;;;;;23.15;12.52;;;;;;;;;;5037717;28;20049;-79
2022/05/18 02:30:21;;;;;;;23.60;13.73;;;;;;;;;;5000450;28;20144;-78
2022/05/18 02:32:48;;;;;;;23.77;12.90;;;;;;;;;;5020364;28;20045;-78
2022/05/18 02:35:15;;;;;;;23.45;13.27;;;;;;;;;;5039200;28;20045;-77
2022/05/18 02:37:43;;;;;;;20.48;12.23;;;;;;;;;;5039133;28;20057;-78
2022/05/18 02:40:11;;;;;;;21.23;13.23;;;;;;;;;;5037831;28;20049;-79
2022/05/18 02:42:38;;;;;;;24.55;13.23;;;;;;;;;;5037653;28;20061;-78
2022/05/18 02:45:07;;;;;;;21.13;12.45;;;;;;;;;;5037793;28;20088;-79
2022/05/18 02:47:34;;;;;;;22.63;13.02;;;;;;;;;;5037114;28;20045;-79
2022/05/18 02:50:00;;;;;;;23.27;13.00;;;;;;;;;;5036922;28;20073;-79
2022/05/18 02:52:27;;;;;;;22.88;12.55;;;;;;;;;;5034235;28;20050;-80
2022/05/18 02:57:39;;;;;;;21.33;12.73;;;;;;;;;;5028023;28;20064;-78
2022/05/18 03:00:08;;;;;;;21.40;12.07;;;;;;;;;;5017956;28;20082;-78
2022/05/18 03:02:35;;;;;;;25.02;13.80;;;;;;;;;;5017767;28;20042;-79
2022/05/18 03:05:02;;;;;;;21.88;12.50;;;;;;;;;;5035907;28;20077;-79
2022/05/18 03:07:28;;;;;;;22.45;13.35;;;;;;;;;;5038321;28;20171;-79
2022/05/18 03:09:56;;;;;;;21.98;13.40;;;;;;;;;;5048332;28;20053;-79
2022/05/18 03:12:23;;;;;;;21.02;12.15;;;;;;;;;;5044893;28;20060;-77
2022/05/18 03:14:50;;;;;;;22.92;12.80;;;;;;;;;;5051121;28;20045;-79
2022/05/18 03:17:17;;;;;;;24.25;12.85;;;;;;;;;;5049016;28;20049;-79
2022/05/18 03:19:43;;;;;;;21.55;13.25;;;;;;;;;;5022601;28;20045;-79
2022/05/18 03:24:54;;;;;;;25.80;13.25;;;;;;;;;;5036835;28;20490;-79
2022/05/18 03:27:22;;;;;;;27.73;13.60;;;;;;;;;;5036474;28;20046;-78
2022/05/18 03:29:49;;;;;;;23.55;13.35;;;;;;;;;;5036284;28;20077;-79
2022/05/18 03:32:16;;;;;;;23.08;12.95;;;;;;;;;;5037200;28;20045;-79
2022/05/18 03:34:43;;;;;;;22.83;12.82;;;;;;;;;;5036455;28;20132;-79
2022/05/18 03:37:09;;;;;;;22.88;13.77;;;;;;;;;;5037621;28;20046;-79
2022/05/18 03:39:36;;;;;;;27.80;15.00;;;;;;;;;;5038288;28;20049;-79
2022/05/18 03:42:03;;;;;;;22.05;12.98;;;;;;;;;;5037592;28;20045;-79
2022/05/18 03:44:31;;;;;;;20.80;13.43;;;;;;;;;;5029401;28;20057;-79
2022/05/18 03:46:58;;;;;;;24.83;14.00;;;;;;;;;;5018798;28;20100;-79
2022/05/18 03:49:25;;;;;;;22.88;14.23;;;;;;;;;;5036266;28;20057;-78
2022/05/18 03:51:51;;;;;;;27.20;13.73;;;;;;;;;;5041959;28;20042;-79
2022/05/18 03:54:18;;;;;;;23.50;12.77;;;;;;;;;;5041153;28;20072;-77
2022/05/18 03:56:45;;;;;;;22.75;13.80;;;;;;;;;;5039544;28;20057;-79
2022/05/18 03:59:12;;;;;;;22.17;13.73;;;;;;;;;;5031419;28;20072;-78
2022/05/18 04:01:41;;;;;;;22.10;13.40;;;;;;;;;;5019915;28;20049;-78
2022/05/18 04:04:08;;;;;;;26.58;14.10;;;;;;;;;;5039257;28;20139;-78
2022/05/18 04:06:35;;;;;;;20.23;13.38;;;;;;;;;;5031037;28;20046;-78
2022/05/18 04:09:02;;;;;;;23.30;14.35;;;;;;;;;;5016422;28;20042;-78
2022/05/18 04:11:29;;;;;;;25.42;14.73;;;;;;;;;;5016399;28;20212;-78
2022/05/18 04:13:56;;;;;;;26.83;15.07;;;;;;;;;;5024259;28;20412;-78
2022/05/18 04:16:23;;;;;;;24.55;14.20;;;;;;;;;;5036242;28;20084;-78
2022/05/18 04:18:51;;;;;;;21.98;13.75;;;;;;;;;;5036509;28;20493;-78
2022/05/18 04:21:17;;;;;;;25.67;13.70;;;;;;;;;;5029285;28;20471;-79
2022/05/18 04:23:44;;;;;;;23.55;13.60;;;;;;;;;;5017516;28;20101;-79
2022/05/18 04:26:11;;;;;;;24.65;13.63;;;;;;;;;;5019936;28;20525;-79
2022/05/18 04:28:38;;;;;;;25.90;14.02;;;;;;;;;;5030346;28;20068;-77
2022/05/18 04:31:05;;;;;;;21.77;13.45;;;;;;;;;;5045185;28;20045;-77
2022/05/18 04:33:32;;;;;;;25.17;14.75;;;;;;;;;;5029880;28;20046;-78
2022/05/18 04:36:02;;;;;;;24.80;13.48;;;;;;;;;;5034419;28;20066;-78
2022/05/18 04:38:29;;;;;;;23.92;14.32;;;;;;;;;;5052729;28;20087;-78
2022/05/18 04:40:57;;;;;;;23.33;15.32;;;;;;;;;;5039263;28;20109;-78
2022/05/18 04:43:24;;;;;;;25.35;14.52;;;;;;;;;;5036221;28;20083;-79
2022/05/18 04:45:51;;;;;;;23.73;14.27;;;;;;;;;;5041482;28;20042;-78
2022/05/18 04:48:20;;;;;;;24.35;14.38;;;;;;;;;;5037284;28;20049;-79
2022/05/18 04:50:48;;;;;;;23.27;14.93;;;;;;;;;;5037212;28;20045;-78
2022/05/18 04:53:18;;;;;;;22.95;14.93;;;;;;;;;;5038848;28;20052;-79
2022/05/18 04:55:45;;;;;;;22.35;14.80;;;;;;;;;;5041143;28;20045;-79
2022/05/18 04:58:12;;;;;;;27.48;15.25;;;;;;;;;;5037960;28;20046;-78
2022/05/18 05:00:40;;;;;;;23.98;14.68;;;;;;;;;;5023774;28;20118;-79
2022/05/18 05:03:06;;;;;;;27.63;15.25;;;;;;;;;;5039773;28;20076;-79
2022/05/18 05:05:34;;;;;;;25.70;14.68;;;;;;;;;;5038655;28;20061;-79
2022/05/18 05:08:01;;;;;;;27.25;15.00;;;;;;;;;;5025383;28;20109;-79
2022/05/18 05:10:29;;;;;;;22.90;14.68;;;;;;;;;;5021167;28;20115;-78
2022/05/18 05:12:56;;;;;;;25.25;14.88;;;;;;;;;;5027961;28;20045;-79
2022/05/18 05:15:23;;;;;;;27.10;15.73;;;;;;;;;;5043884;28;20493;-78
2022/05/18 05:17:50;;;;;;;27.75;16.17;;;;;;;;;;5030051;28;20042;-79
2022/05/18 05:20:17;;;;;;;25.20;15.02;;;;;;;;;;5026696;28;20045;-79
2022/05/18 05:22:44;;;;;;;30.25;16.35;;;;;;;;;;5025178;28;20046;-79
2022/05/18 05:25:11;;;;;;;24.17;14.85;;;;;;;;;;5035211;28;20053;-78
2022/05/18 05:27:39;;;;;;;23.15;14.45;;;;;;;;;;5035777;28;20073;-80
2022/05/18 05:30:08;;;;;;;29.38;16.55;;;;;;;;;;5020503;28;20112;-79
2022/05/18 05:32:36;;;;;;;27.42;17.80;;;;;;;;;;5022489;28;20054;-78
2022/05/18 05:35:03;;;;;;;25.00;15.32;;;;;;;;;;5026087;28;20473;-78
2022/05/18 05:37:30;;;;;;;27.63;15.40;;;;;;;;;;5041259;28;20049;-79
2022/05/18 05:39:57;;;;;;;23.08;15.38;;;;;;;;;;5024058;28;20056;-77
2022/05/18 05:42:23;;;;;;;25.00;13.95;;;;;;;;;;5021322;28;20505;-80
2022/05/18 05:44:52;;;;;;;22.13;13.98;;;;;;;;;;5020648;28;20045;-79
2022/05/18 05:47:19;;;;;;;25.52;13.55;;;;;;;;;;5023265;28;20487;-79
2022/05/18 05:49:46;;;;;;;21.58;12.82;;;;;;;;;;5020345;28;20046;-79
2022/05/18 05:52:13;;;;;;;20.83;13.40;;;;;;;;;;5018904;28;20050;-78
2022/05/18 05:54:40;;;;;;;19.10;12.00;;;;;;;;;;5020334;28;20078;-78
2022/05/18 05:57:07;;;;;;;19.40;11.77;;;;;;;;;;5025532;28;20099;-80
2022/05/18 06:02:57;;;;;;;18.30;11.57;;;;;;;;;;5022892;28;20044;-78
2022/05/18 06:05:24;;;;;;;20.33;11.73;;;;;;;;;;5035065;28;20057;-79
2022/05/18 06:07:51;;;;;;;20.75;11.88;;;;;;;;;;5039815;28;20407;-79
2022/05/18 06:10:18;;;;;;;17.15;11.48;;;;;;;;;;5035002;28;20053;-78
2022/05/18 06:12:44;;;;;;;17.00;11.48;;;;;;;;;;5032562;28;20046;-78
2022/05/18 06:15:11;;;;;;;21.35;12.57;;;;;;;;;;5021742;28;20824;-79
2022/05/18 06:17:38;;;;;;;19.85;12.80;;;;;;;;;;5019349;28;20478;-78
2022/05/18 06:23:45;;;;;;;20.75;12.20;;;;;;;;;;5028769;28;20048;-78
2022/05/18 06:26:12;;;;;;;16.13;10.93;;;;;;;;;;5020865;28;20520;-77
2022/05/18 06:28:40;;;;;;;20.25;11.73;;;;;;;;;;5035741;28;20053;-79
2022/05/18 06:31:07;;;;;;;17.60;11.27;;;;;;;;;;5041857;28;20049;-78
2022/05/18 06:33:35;;;;;;;17.48;10.90;;;;;;;;;;5043351;28;20586;-80
2022/05/18 06:36:04;;;;;;;18.02;11.25;;;;;;;;;;5036633;28;20096;-78
2022/05/18 06:38:31;;;;;;;18.05;11.68;;;;;;;;;;5032817;28;20073;-78
2022/05/18 06:43:44;;;;;;;19.30;11.02;;;;;;;;;;5021594;28;20060;-79
2022/05/18 06:46:11;;;;;;;19.45;11.35;;;;;;;;;;5033541;28;20042;-79
2022/05/18 06:48:39;;;;;;;22.55;13.68;;;;;;;;;;5023663;28;20072;-79
2022/05/18 06:51:09;;;;;;;20.65;11.27;;;;;;;;;;5025114;28;20523;-78
2022/05/18 06:53:36;;;;;;;18.67;13.20;;;;;;;;;;5045724;28;20096;-79
2022/05/18 06:56:06;;;;;;;27.33;11.63;;;;;;;;;;5038547;28;20049;-79
2022/05/18 06:58:34;;;;;;;19.08;11.30;;;;;;;;;;5023028;28;20046;-77
2022/05/18 07:01:01;;;;;;;19.15;12.27;;;;;;;;;;5023889;28;20045;-78
2022/05/18 07:03:28;;;;;;;19.50;12.88;;;;;;;;;;5012191;28;20132;-79
2022/05/18 07:05:55;;;;;;;17.27;11.40;;;;;;;;;;5028932;28;20077;-78
2022/05/18 07:08:22;;;;;;;21.00;11.63;;;;;;;;;;5017302;28;20041;-80
2022/05/18 07:10:49;;;;;;;16.92;10.68;;;;;;;;;;5017378;28;20050;-80
2022/05/18 07:13:18;;;;;;;16.50;10.65;;;;;;;;;;5034894;28;20076;-81
2022/05/18 07:15:45;;;;;;;17.63;10.60;;;;;;;;;;5031539;28;20065;-77
2022/05/18 07:18:13;;;;;;;17.98;12.23;;;;;;;;;;5020227;28;20668;-78
2022/05/18 07:20:41;;;;;;;14.65;11.00;;;;;;;;;;5014106;28;20497;-78
2022/05/18 07:23:08;;;;;;;22.52;13.60;;;;;;;;;;5014117;28;20042;-79
2022/05/18 07:25:35;;;;;;;18.55;10.98;;;;;;;;;;5015636;28;20106;-79
2022/05/18 07:28:45;;;;;;;18.23;11.80;;;;;;;;;;5017464;28;20310;-78
2022/05/18 07:31:14;;;;;;;20.67;12.45;;;;;;;;;;5011559;28;20073;-78
2022/05/18 07:33:41;;;;;;;17.65;11.35;;;;;;;;;;5012436;28;20116;-78
2022/05/18 07:36:08;;;;;;;14.57;9.63;;;;;;;;;;4994231;28;20042;-79
2022/05/18 07:38:37;;;;;;;17.92;11.90;;;;;;;;;;4996274;28;20078;-78
2022/05/18 07:41:03;;;;;;;16.95;11.00;;;;;;;;;;4996741;28;20046;-78
2022/05/18 07:43:30;;;;;;;15.65;10.65;;;;;;;;;;5006567;28;20049;-79
2022/05/18 07:45:57;;;;;;;15.63;10.40;;;;;;;;;;5035334;28;20073;-79
2022/05/18 07:48:26;;;;;;;14.73;10.05;;;;;;;;;;5032712;28;20037;-78
2022/05/18 07:50:53;;;;;;;16.70;11.45;;;;;;;;;;5023640;28;20408;-78
2022/05/18 07:53:21;;;;;;;24.00;14.90;;;;;;;;;;5015374;28;20145;-78
2022/05/18 07:55:48;;;;;;;20.35;11.07;;;;;;;;;;5015064;28;20053;-78
2022/05/18 07:58:17;;;;;;;15.32;11.68;;;;;;;;;;5014793;28;20073;-80
2022/05/18 08:00:46;;;;;;;24.30;13.85;;;;;;;;;;5015550;28;20057;-79
2022/05/18 08:03:13;;;;;;;16.80;11.43;;;;;;;;;;5017230;28;20085;-78
2022/05/18 08:05:42;;;;;;;20.58;11.32;;;;;;;;;;5015617;28;20053;-80
2022/05/18 08:08:12;;;;;;;18.08;12.02;;;;;;;;;;5018048;28;20053;-78
2022/05/18 08:16:09;;;;;;;17.38;11.77;;;;;;;;;;5013297;28;20052;-79
2022/05/18 08:18:36;;;;;;;17.60;10.88;;;;;;;;;;5013292;28;20045;-79
2022/05/18 08:21:05;;;;;;;14.57;9.80;;;;;;;;;;5013244;28;20050;-80
2022/05/18 08:23:32;;;;;;;14.48;10.10;;;;;;;;;;5013647;28;20464;-79
2022/05/18 08:25:59;;;;;;;17.35;12.18;;;;;;;;;;5012683;28;20421;-79
2022/05/18 08:28:27;;;;;;;16.65;12.05;;;;;;;;;;5012861;28;20108;-79
2022/05/18 08:30:55;;;;;;;19.70;12.45;;;;;;;;;;5013328;28;20141;-80
2022/05/18 08:33:23;;;;;;;13.52;10.13;;;;;;;;;;5011725;28;20121;-78
2022/05/18 08:35:49;;;;;;;21.17;12.18;;;;;;;;;;5010868;28;20096;-78
2022/05/18 08:38:19;;;;;;;15.90;10.88;;;;;;;;;;5014025;28;20104;-79
2022/05/18 08:40:49;;;;;;;20.42;12.55;;;;;;;;;;5016383;28;20257;-81
2022/05/18 08:43:23;;;;;;;16.98;9.52;;;;;;;;;;5014253;28;20053;-82
2022/05/18 08:46:04;;;;;;;13.57;9.13;;;;;;;;;;5016276;28;20050;-81
2022/05/18 08:48:43;;;;;;;13.50;8.93;;;;;;;;;;5044767;28;20033;-82
2022/05/18 08:51:21;;;;;;;13.35;9.27;;;;;;;;;;5047780;28;20053;-77
2022/05/18 08:53:58;;;;;;;13.20;9.15;;;;;;;;;;5016902;28;20058;-76
2022/05/18 08:56:31;;;;;;;14.60;8.90;;;;;;;;;;5012307;28;20104;-77
2022/05/18 08:58:58;;;;;;;14.63;9.57;;;;;;;;;;5011726;28;20046;-78
2022/05/18 09:01:29;;;;;;;13.13;8.43;;;;;;;;;;5011456;28;20436;-76
2022/05/18 09:04:02;;;;;;;14.57;9.68;;;;;;;;;;5010877;28;20050;-76
2022/05/18 09:06:34;;;;;;;13.63;9.48;;;;;;;;;;5010230;28;20560;-76
2022/05/18 09:11:50;;;;;;;14.43;9.20;;;;;;;;;;5010524;28;20096;-76
2022/05/18 09:14:20;;;;;;;10.23;7.85;;;;;;;;;;5010452;28;20101;-76
2022/05/18 09:16:57;;;;;;;14.43;8.20;;;;;;;;;;5008811;28;20141;-77
2022/05/18 09:19:34;;;;;;;10.38;7.63;;;;;;;;;;4990499;28;20116;-77
2022/05/18 09:22:10;;;;;;;13.27;8.75;;;;;;;;;;5007436;28;20527;-77
2022/05/18 09:24:49;;;;;;;16.67;10.55;;;;;;;;;;5014667;28;20053;-77
2022/05/18 09:27:27;;;;;;;17.25;9.30;;;;;;;;;;5009837;28;20053;-76
2022/05/18 09:30:06;;;;;;;10.88;7.90;;;;;;;;;;5009532;28;20585;-76
2022/05/18 09:32:45;;;;;;;12.18;7.95;;;;;;;;;;5010187;28;20077;-75
2022/05/18 09:35:28;;;;;;;10.70;6.82;;;;;;;;;;5009731;28;20054;-77
2022/05/18 09:37:59;;;;;;;13.05;7.78;;;;;;;;;;5009757;28;20104;-76
2022/05/18 09:40:31;;;;;;;12.32;7.88;;;;;;;;;;5011531;28;20050;-77
2022/05/18 09:43:07;;;;;;;11.90;8.23;;;;;;;;;;5013090;28;20847;-76
2022/05/18 09:45:36;;;;;;;11.95;8.90;;;;;;;;;;4993211;28;20055;-77
2022/05/18 09:48:10;;;;;;;11.75;7.95;;;;;;;;;;5012246;28;20065;-76
2022/05/18 09:50:39;;;;;;;11.02;7.45;;;;;;;;;;5013379;28;20140;-75
2022/05/18 09:53:06;;;;;;;12.93;7.63;;;;;;;;;;5013419;28;20046;-77
2022/05/18 09:55:35;;;;;;;11.13;7.55;;;;;;;;;;5012726;28;20042;-77
2022/05/18 09:58:06;;;;;;;12.02;7.32;;;;;;;;;;5013175;28;20125;-77
2022/05/18 10:00:35;;;;;;;11.98;7.72;;;;;;;;;;5012753;28;20420;-76
2022/05/18 10:08:46;;;;;;;12.70;7.95;;;;;;;;;;4993788;28;20591;-78
2022/05/18 10:11:18;;;;;;;13.43;7.97;;;;;;;;;;5018528;28;20464;-77
2022/05/18 10:13:56;;;;;;;13.05;8.05;;;;;;;;;;5020844;28;20096;-77
2022/05/18 10:16:34;;;;;;;13.23;7.57;;;;;;;;;;5036563;28;20045;-76
2022/05/18 10:19:04;;;;;;;12.90;8.10;;;;;;;;;;5032515;28;20045;-78
2022/05/18 10:21:36;;;;;;;11.37;7.60;;;;;;;;;;5042207;28;20029;-81
2022/05/18 10:24:06;;;;;;;13.02;7.40;;;;;;;;;;5045880;28;20049;-83
2022/05/18 10:26:38;;;;;;;11.17;6.30;;;;;;;;;;5042197;28;20057;-77
2022/05/18 10:29:07;;;;;;;8.85;5.10;;;;;;;;;;5021608;28;20291;-79
2022/05/18 10:31:37;;;;;;;9.87;5.67;;;;;;;;;;5033613;28;20048;-79
2022/05/18 10:34:16;;;;;;;9.80;6.25;;;;;;;;;;5035249;28;20283;-78
2022/05/18 10:36:44;;;;;;;10.15;6.03;;;;;;;;;;5032029;28;20069;-77
2022/05/18 10:39:11;;;;;;;8.40;5.90;;;;;;;;;;5036471;28;20077;-77
2022/05/18 10:41:45;;;;;;;8.35;5.10;;;;;;;;;;5034887;28;20045;-78
2022/05/18 10:44:17;;;;;;;9.68;5.68;;;;;;;;;;5025316;28;20038;-77
2022/05/18 10:46:46;;;;;;;10.68;6.97;;;;;;;;;;5013780;28;20077;-77
2022/05/18 10:49:30;;;;;;;10.98;5.85;;;;;;;;;;5013706;28;20112;-77
2022/05/18 10:52:10;;;;;;;20.70;10.52;;;;;;;;;;4994140;28;20100;-78
2022/05/18 10:54:38;;;;;;;48.42;18.02;;;;;;;;;;4994121;28;20085;-77
2022/05/18 10:57:16;;;;;;;15.98;7.25;;;;;;;;;;5018735;28;20519;-77
2022/05/18 10:59:49;;;;;;;20.15;9.82;;;;;;;;;;5021264;28;20189;-77
2022/05/18 11:02:27;;;;;;;11.95;6.78;;;;;;;;;;5016081;28;20054;-78
2022/05/18 11:05:01;;;;;;;12.32;7.47;;;;;;;;;;5022788;28;20064;-77
2022/05/18 11:07:30;;;;;;;10.35;5.93;;;;;;;;;;5013817;28;20077;-77
2022/05/18 11:09:58;;;;;;;8.95;5.65;;;;;;;;;;4998986;28;20109;-78
2022/05/18 11:12:35;;;;;;;13.40;7.10;;;;;;;;;;4996639;28;20724;-77
2022/05/18 11:15:06;;;;;;;11.48;6.65;;;;;;;;;;5030457;28;20046;-78
2022/05/18 11:17:51;;;;;;;10.98;7.13;;;;;;;;;;5014151;28;20057;-77
2022/05/18 11:20:28;;;;;;;10.52;6.78;;;;;;;;;;5014265;28;20054;-77
2022/05/18 11:23:03;;;;;;;14.32;8.45;;;;;;;;;;5021984;28;20500;-77
2022/05/18 11:25:37;;;;;;;11.63;8.38;;;;;;;;;;5033360;28;20053;-77
2022/05/18 11:28:24;;;;;;;10.43;7.60;;;;;;;;;;5024406;28;20049;-76
2022/05/18 11:31:01;;;;;;;11.45;8.15;;;;;;;;;;5017704;28;20045;-77
2022/05/18 11:33:38;;;;;;;12.93;8.18;;;;;;;;;;5010399;28;20648;-77
2022/05/18 11:36:18;;;;;;;17.05;10.93;;;;;;;;;;4995078;28;20050;-78
2022/05/18 11:39:00;;;;;;;18.13;10.35;;;;;;;;;;4993937;28;20140;-77
2022/05/18 11:41:37;;;;;;;11.60;8.30;;;;;;;;;;4993382;28;20085;-77
2022/05/18 11:44:10;;;;;;;11.23;7.35;;;;;;;;;;4995337;28;20464;-76
2022/05/18 11:46:57;;;;;;;16.17;8.30;;;;;;;;;;5004098;28;20057;-78
2022/05/18 11:49:33;;;;;;;13.10;9.75;;;;;;;;;;5013345;28;20049;-77
2022/05/18 11:52:21;;;;;;;13.40;9.70;;;;;;;;;;5014168;28;20080;-77
2022/05/18 11:55:03;;;;;;;10.98;9.23;;;;;;;;;;5013801;28;20050;-78
2022/05/18 11:57:39;;;;;;;13.57;8.65;;;;;;;;;;5021521;28;20412;-80
2022/05/18 12:00:15;;;;;;;15.65;9.25;;;;;;;;;;5018158;28;20096;-76
2022/05/18 12:03:03;;;;;;;12.75;8.00;;;;;;;;;;5012210;28;20061;-77
2022/05/18 12:05:49;;;;;;;13.05;8.57;;;;;;;;;;5014667;28;20058;-77
2022/05/18 12:08:41;;;;;;;14.63;11.48;;;;;;;;;;5013882;28;20640;-80
2022/05/18 12:11:14;;;;;;;12.52;8.68;;;;;;;;;;5002407;28;20049;-78
2022/05/18 12:13:55;;;;;;;11.68;8.73;;;;;;;;;;5012054;28;20054;-78
2022/05/18 12:16:31;;;;;;;11.70;8.30;;;;;;;;;;5008002;28;20045;-76
2022/05/18 12:19:08;;;;;;;14.85;9.68;;;;;;;;;;5011116;28;20133;-76
2022/05/18 12:21:39;;;;;;;12.70;8.77;;;;;;;;;;5010876;28;20041;-77
2022/05/18 12:24:08;;;;;;;12.43;8.00;;;;;;;;;;5029277;28;20052;-77
2022/05/18 12:26:37;;;;;;;11.67;7.77;;;;;;;;;;5024630;28;20464;-77
2022/05/18 12:29:05;;;;;;;11.95;8.48;;;;;;;;;;5029692;28;20096;-78
2022/05/18 12:31:35;;;;;;;12.60;8.00;;;;;;;;;;5027974;28;20132;-77
2022/05/18 12:34:05;;;;;;;9.98;7.85;;;;;;;;;;5021970;28;20575;-76
2022/05/18 12:36:36;;;;;;;12.68;8.05;;;;;;;;;;5018317;28;20457;-77
2022/05/18 12:39:14;;;;;;;10.65;7.78;;;;;;;;;;5017378;28;20062;-76
2022/05/18 12:41:44;;;;;;;11.00;7.80;;;;;;;;;;5010797;28;20054;-78
2022/05/18 12:44:14;;;;;;;12.20;7.85;;;;;;;;;;5012334;28;20054;-77
2022/05/18 12:46:54;;;;;;;9.73;7.82;;;;;;;;;;5011385;28;20081;-77
2022/05/18 12:49:28;;;;;;;;;;;;;;;;;;5015498;28;20049;-75
2022/05/18 12:52:02;;;;;;;11.48;7.50;;;;;;;;;;5017904;28;20439;-78
2022/05/18 12:54:39;;;;;;;13.32;7.80;;;;;;;;;;5012053;28;20103;-78
2022/05/18 12:57:19;;;;;;;9.05;7.22;;;;;;;;;;4991059;28;20074;-77
2022/05/18 13:00:36;;;;;;;10.90;6.85;;;;;;;;;;5016198;28;20497;-77
2022/05/18 13:03:24;;;;;;;11.35;7.55;;;;;;;;;;5010810;28;20104;-77
2022/05/18 13:05:54;;;;;;;9.48;6.95;;;;;;;;;;5012653;28;20053;-77
2022/05/18 13:08:56;;;;;;;9.80;6.93;;;;;;;;;;5013830;28;20066;-76
2022/05/18 13:11:32;;;;;;;8.80;6.35;;;;;;;;;;5016146;28;20045;-77
2022/05/18 13:14:18;;;;;;;8.05;6.00;;;;;;;;;;5008898;28;20049;-77
2022/05/18 13:17:17;;;;;;;9.18;6.13;;;;;;;;;;5025420;28;20045;-76
2022/05/18 13:19:59;;;;;;;8.57;5.80;;;;;;;;;;5008584;28;20057;-77
2022/05/18 13:22:39;;;;;;;8.07;5.95;;;;;;;;;;5015397;28;20100;-77
2022/05/18 13:25:07;;;;;;;12.35;9.55;;;;;;;;;;5010468;28;20042;-77
2022/05/18 13:27:45;;;;;;;10.93;5.63;;;;;;;;;;5014074;28;20053;-77
2022/05/18 13:30:17;;;;;;;11.10;5.30;;;;;;;;;;5014074;28;20545;-77
2022/05/18 13:32:45;;;;;;;8.38;5.25;;;;;;;;;;5014361;28;20042;-76
2022/05/18 13:35:19;;;;;;;9.75;5.78;;;;;;;;;;5014192;28;20054;-77
2022/05/18 13:37:52;;;;;;;8.38;4.68;;;;;;;;;;5019492;28;20045;-76
2022/05/18 13:40:21;;;;;;;6.03;4.53;;;;;;;;;;5012948;28;20088;-77
2022/05/18 13:42:48;;;;;;;6.50;4.38;;;;;;;;;;5013629;28;20049;-77
2022/05/18 13:45:15;;;;;;;11.07;4.80;;;;;;;;;;5013075;28;20046;-77
2022/05/18 13:47:45;;;;;;;6.95;4.28;;;;;;;;;;5013011;28;20104;-77
2022/05/18 13:50:21;;;;;;;;;;;;;;;;;;5013625;28;20049;-77
2022/05/18 13:52:49;;;;;;;9.88;4.20;;;;;;;;;;5013180;28;19925;-78
2022/05/18 13:55:20;;;;;;;5.68;3.85;;;;;;;;;;5021688;28;20041;-76
2022/05/18 13:57:52;;;;;;;6.22;3.70;;;;;;;;;;5033198;28;20049;-78
2022/05/18 14:00:26;;;;;;;5.95;3.75;;;;;;;;;;5015702;28;20046;-77
2022/05/18 14:02:56;;;;;;;9.55;4.32;;;;;;;;;;5017970;28;20050;-77
2022/05/18 14:05:29;;;;;;;6.35;4.53;;;;;;;;;;5012781;28;20212;-77
2022/05/18 14:07:56;;;;;;;5.50;3.90;;;;;;;;;;5012919;28;20127;-77
2022/05/18 14:10:25;;;;;;;7.85;4.60;;;;;;;;;;5014340;28;20049;-79
2022/05/18 14:12:57;;;;;;;7.65;4.50;;;;;;;;;;5032435;28;20077;-78
2022/05/18 14:15:23;;;;;;;9.75;5.13;;;;;;;;;;5019292;28;20044;-78
2022/05/18 14:17:55;;;;;;;7.72;4.78;;;;;;;;;;5027083;28;20570;-77
2022/05/18 14:20:27;;;;;;;7.45;5.25;;;;;;;;;;5015420;28;22223;-77
2022/05/18 14:23:00;;;;;;;11.32;7.20;;;;;;;;;;5028198;28;20051;-77
2022/05/18 14:25:31;;;;;;;7.05;5.78;;;;;;;;;;5018731;28;20124;-77
2022/05/18 14:28:01;;;;;;;9.75;6.00;;;;;;;;;;5017407;28;20103;-78
2022/05/18 14:30:32;;;;;;;7.25;5.50;;;;;;;;;;5011208;28;20042;-77
2022/05/18 14:33:02;;;;;;;7.43;6.00;;;;;;;;;;5018867;28;20064;-77
2022/05/18 14:35:35;;;;;;;7.38;5.93;;;;;;;;;;5023170;28;20099;-80
2022/05/18 14:38:29;;;;;;;8.20;5.40;;;;;;;;;;5013637;28;20436;-77
2022/05/18 14:40:59;;;;;;;8.80;5.88;;;;;;;;;;5020576;28;20045;-78
2022/05/18 14:43:30;;;;;;;;;;;;;;;;;;5021393;28;20096;-78
2022/05/18 14:46:06;;;;;;;7.63;5.57;;;;;;;;;;5018167;28;20402;-76
2022/05/18 14:48:42;;;;;;;8.48;5.70;;;;;;;;;;4994090;28;20053;-79
2022/05/18 14:51:15;;;;;;;12.90;6.40;;;;;;;;;;4994192;28;20137;-79
2022/05/18 14:53:46;;;;;;;16.40;10.50;;;;;;;;;;5003849;28;20041;-80
2022/05/18 14:56:14;;;;;;;8.68;5.80;;;;;;;;;;5014905;28;20112;-78
2022/05/18 14:58:44;;;;;;;9.75;6.18;;;;;;;;;;5028869;28;20467;-78
2022/05/18 15:01:24;;;;;;;8.35;5.72;;;;;;;;;;5017675;28;20101;-79
2022/05/18 15:03:52;;;;;;;8.32;6.53;;;;;;;;;;5013710;28;20053;-78
2022/05/18 15:06:27;;;;;;;11.57;6.22;;;;;;;;;;5013036;28;20068;-77
2022/05/18 15:08:56;;;;;;;11.23;7.05;;;;;;;;;;5014829;28;20053;-78
2022/05/18 15:11:36;;;;;;;11.17;6.37;;;;;;;;;;5012845;28;20501;-78
2022/05/18 15:14:05;;;;;;;;;;;;;;;;;;5017156;28;20061;-78
2022/05/18 15:16:39;;;;;;;9.50;5.93;;;;;;;;;;5020159;28;20024;-77
2022/05/18 15:19:17;;;;;;;8.43;6.60;;;;;;;;;;5011954;28;20648;-78
2022/05/18 15:21:46;;;;;;;8.05;6.68;;;;;;;;;;5012704;28;20041;-77
2022/05/18 15:24:19;;;;;;;9.73;7.20;;;;;;;;;;5012526;28;20104;-78